sensor_id;sensor_type;location;lat;lon;timestamp;P1;durP1;ratioP1;P2;durP2;ratioP2
27656;SDS011;15066;46.134;9.476;2022-09-09T00:04:37;3.72;;;2.30;;
27656;SDS011;15066;46.134;9.476;2022-09-09T00:07:01;4.15;;;2.50;;
27656;SDS011;15066;46.134;9.476;2022-09-09T00:09:45;6.50;;;2.60;;
27656;SDS011;15066;46.134;9.476;2022-09-09T00:12:17;4.08;;;2.60;;
27656;SDS011;15066;46.134;9.476;2022-09-09T00:15:03;3.65;;;2.20;;
27656;SDS011;15066;46.134;9.476;2022-09-09T00:17:38;5.65;;;2.67;;
27656;SDS011;15066;46.134;9.476;2022-09-09T00:20:13;4.60;;;2.20;;
27656;SDS011;15066;46.134;9.476;2022-09-09T00:25:37;5.05;;;2.00;;
27656;SDS011;15066;46.134;9.476;2022-09-09T00:28:04;4.20;;;2.33;;
27656;SDS011;15066;46.134;9.476;2022-09-09T00:30:34;3.58;;;2.35;;
27656;SDS011;15066;46.134;9.476;2022-09-09T00:33:10;3.37;;;1.80;;
27656;SDS011;15066;46.134;9.476;2022-09-09T00:35:48;4.50;;;2.17;;
27656;SDS011;15066;46.134;9.476;2022-09-09T00:38:35;8.55;;;2.10;;
27656;SDS011;15066;46.134;9.476;2022-09-09T00:41:07;3.30;;;1.92;;
27656;SDS011;15066;46.134;9.476;2022-09-09T00:43:39;3.98;;;2.98;;
27656;SDS011;15066;46.134;9.476;2022-09-09T00:49:00;4.08;;;2.10;;
27656;SDS011;15066;46.134;9.476;2022-09-09T00:51:49;4.90;;;1.80;;
27656;SDS011;15066;46.134;9.476;2022-09-09T00:54:28;2.02;;;1.82;;
27656;SDS011;15066;46.134;9.476;2022-09-09T00:57:05;3.40;;;2.12;;
27656;SDS011;15066;46.134;9.476;2022-09-09T00:59:48;2.80;;;2.00;;
27656;SDS011;15066;46.134;9.476;2022-09-09T01:02:39;3.22;;;2.00;;
27656;SDS011;15066;46.134;9.476;2022-09-09T01:05:30;4.17;;;2.42;;
27656;SDS011;15066;46.134;9.476;2022-09-09T01:08:01;2.80;;;2.00;;
27656;SDS011;15066;46.134;9.476;2022-09-09T01:10:36;3.95;;;2.42;;
27656;SDS011;15066;46.134;9.476;2022-09-09T01:13:02;5.15;;;2.40;;
27656;SDS011;15066;46.134;9.476;2022-09-09T01:15:32;3.00;;;2.30;;
27656;SDS011;15066;46.134;9.476;2022-09-09T01:18:06;6.03;;;2.70;;
27656;SDS011;15066;46.134;9.476;2022-09-09T01:21:22;5.58;;;2.55;;
27656;SDS011;15066;46.134;9.476;2022-09-09T01:26:15;2.83;;;2.58;;
27656;SDS011;15066;46.134;9.476;2022-09-09T01:28:47;5.58;;;2.70;;
27656;SDS011;15066;46.134;9.476;2022-09-09T01:31:23;4.15;;;2.75;;
27656;SDS011;15066;46.134;9.476;2022-09-09T01:33:52;4.33;;;2.50;;
27656;SDS011;15066;46.134;9.476;2022-09-09T01:36:34;4.33;;;2.40;;
27656;SDS011;15066;46.134;9.476;2022-09-09T01:39:02;3.55;;;2.45;;
27656;SDS011;15066;46.134;9.476;2022-09-09T01:41:30;5.42;;;2.83;;
27656;SDS011;15066;46.134;9.476;2022-09-09T01:43:58;3.37;;;3.00;;
27656;SDS011;15066;46.134;9.476;2022-09-09T01:46:25;5.55;;;2.87;;
27656;SDS011;15066;46.134;9.476;2022-09-09T01:48:55;4.78;;;2.67;;
27656;SDS011;15066;46.134;9.476;2022-09-09T01:51:23;5.00;;;2.83;;
27656;SDS011;15066;46.134;9.476;2022-09-09T01:53:51;7.67;;;2.80;;
27656;SDS011;15066;46.134;9.476;2022-09-09T01:59:19;5.60;;;2.77;;
27656;SDS011;15066;46.134;9.476;2022-09-09T02:04:40;2.45;;;2.25;;
27656;SDS011;15066;46.134;9.476;2022-09-09T02:10:31;3.42;;;2.35;;
27656;SDS011;15066;46.134;9.476;2022-09-09T02:12:40;2.47;;;2.27;;
27656;SDS011;15066;46.134;9.476;2022-09-09T02:15:13;5.95;;;2.65;;
27656;SDS011;15066;46.134;9.476;2022-09-09T02:17:40;5.37;;;2.10;;
27656;SDS011;15066;46.134;9.476;2022-09-09T02:20:14;2.95;;;2.02;;
27656;SDS011;15066;46.134;9.476;2022-09-09T02:22:41;2.85;;;2.00;;
27656;SDS011;15066;46.134;9.476;2022-09-09T02:25:12;3.15;;;1.90;;
27656;SDS011;15066;46.134;9.476;2022-09-09T02:27:41;4.50;;;2.27;;
27656;SDS011;15066;46.134;9.476;2022-09-09T02:30:12;4.65;;;2.27;;
27656;SDS011;15066;46.134;9.476;2022-09-09T02:32:40;2.90;;;2.20;;
27656;SDS011;15066;46.134;9.476;2022-09-09T02:35:15;3.70;;;2.25;;
27656;SDS011;15066;46.134;9.476;2022-09-09T02:37:44;4.03;;;2.37;;
27656;SDS011;15066;46.134;9.476;2022-09-09T02:40:13;3.27;;;2.22;;
27656;SDS011;15066;46.134;9.476;2022-09-09T02:45:14;2.65;;;2.20;;
27656;SDS011;15066;46.134;9.476;2022-09-09T02:47:59;3.25;;;2.02;;
27656;SDS011;15066;46.134;9.476;2022-09-09T02:58:37;4.25;;;2.08;;
27656;SDS011;15066;46.134;9.476;2022-09-09T03:03:33;4.25;;;1.80;;
27656;SDS011;15066;46.134;9.476;2022-09-09T03:06:02;2.70;;;1.70;;
27656;SDS011;15066;46.134;9.476;2022-09-09T03:08:31;2.37;;;1.52;;
27656;SDS011;15066;46.134;9.476;2022-09-09T03:10:59;2.75;;;1.60;;
27656;SDS011;15066;46.134;9.476;2022-09-09T03:13:28;3.15;;;1.70;;
27656;SDS011;15066;46.134;9.476;2022-09-09T03:15:56;3.20;;;1.50;;
27656;SDS011;15066;46.134;9.476;2022-09-09T03:18:23;1.35;;;1.22;;
27656;SDS011;15066;46.134;9.476;2022-09-09T03:20:51;6.05;;;1.42;;
27656;SDS011;15066;46.134;9.476;2022-09-09T03:23:20;2.10;;;1.67;;
27656;SDS011;15066;46.134;9.476;2022-09-09T03:25:48;2.62;;;1.80;;
27656;SDS011;15066;46.134;9.476;2022-09-09T03:28:17;3.10;;;1.60;;
27656;SDS011;15066;46.134;9.476;2022-09-09T03:30:46;5.85;;;2.30;;
27656;SDS011;15066;46.134;9.476;2022-09-09T03:33:14;4.65;;;1.52;;
27656;SDS011;15066;46.134;9.476;2022-09-09T03:35:46;3.42;;;1.80;;
27656;SDS011;15066;46.134;9.476;2022-09-09T03:38:14;2.50;;;1.57;;
27656;SDS011;15066;46.134;9.476;2022-09-09T03:40:51;2.83;;;1.42;;
27656;SDS011;15066;46.134;9.476;2022-09-09T03:43:24;2.70;;;1.50;;
27656;SDS011;15066;46.134;9.476;2022-09-09T03:45:53;3.90;;;1.70;;
27656;SDS011;15066;46.134;9.476;2022-09-09T03:48:24;3.60;;;1.90;;
27656;SDS011;15066;46.134;9.476;2022-09-09T03:50:54;3.58;;;1.47;;
27656;SDS011;15066;46.134;9.476;2022-09-09T03:53:23;5.45;;;2.08;;
27656;SDS011;15066;46.134;9.476;2022-09-09T03:55:52;3.75;;;1.52;;
27656;SDS011;15066;46.134;9.476;2022-09-09T03:58:24;4.58;;;1.40;;
27656;SDS011;15066;46.134;9.476;2022-09-09T04:00:56;6.00;;;1.40;;
27656;SDS011;15066;46.134;9.476;2022-09-09T04:03:26;4.70;;;1.17;;
27656;SDS011;15066;46.134;9.476;2022-09-09T04:05:59;2.72;;;1.50;;
27656;SDS011;15066;46.134;9.476;2022-09-09T04:08:24;1.37;;;1.15;;
27656;SDS011;15066;46.134;9.476;2022-09-09T04:10:53;3.60;;;1.47;;
27656;SDS011;15066;46.134;9.476;2022-09-09T04:13:23;3.90;;;1.47;;
27656;SDS011;15066;46.134;9.476;2022-09-09T04:15:52;1.85;;;1.65;;
27656;SDS011;15066;46.134;9.476;2022-09-09T04:18:22;3.05;;;1.77;;
27656;SDS011;15066;46.134;9.476;2022-09-09T04:20:52;3.72;;;2.42;;
27656;SDS011;15066;46.134;9.476;2022-09-09T04:23:22;2.10;;;1.50;;
27656;SDS011;15066;46.134;9.476;2022-09-09T04:25:52;2.45;;;1.50;;
27656;SDS011;15066;46.134;9.476;2022-09-09T04:28:22;3.17;;;1.30;;
27656;SDS011;15066;46.134;9.476;2022-09-09T04:30:51;2.08;;;1.30;;
27656;SDS011;15066;46.134;9.476;2022-09-09T04:33:18;1.77;;;1.02;;
27656;SDS011;15066;46.134;9.476;2022-09-09T04:35:49;2.57;;;1.60;;
27656;SDS011;15066;46.134;9.476;2022-09-09T04:38:19;2.05;;;1.35;;
27656;SDS011;15066;46.134;9.476;2022-09-09T04:40:51;1.75;;;1.30;;
27656;SDS011;15066;46.134;9.476;2022-09-09T04:43:20;3.40;;;1.65;;
27656;SDS011;15066;46.134;9.476;2022-09-09T04:45:49;4.47;;;2.05;;
27656;SDS011;15066;46.134;9.476;2022-09-09T04:48:18;2.98;;;1.40;;
27656;SDS011;15066;46.134;9.476;2022-09-09T04:51:03;4.17;;;1.55;;
27656;SDS011;15066;46.134;9.476;2022-09-09T04:53:32;1.75;;;1.45;;
27656;SDS011;15066;46.134;9.476;2022-09-09T04:56:12;3.87;;;1.75;;
27656;SDS011;15066;46.134;9.476;2022-09-09T04:58:37;5.72;;;1.77;;
27656;SDS011;15066;46.134;9.476;2022-09-09T05:01:11;3.40;;;1.80;;
27656;SDS011;15066;46.134;9.476;2022-09-09T05:03:41;4.47;;;2.05;;
27656;SDS011;15066;46.134;9.476;2022-09-09T05:06:11;3.27;;;1.98;;
27656;SDS011;15066;46.134;9.476;2022-09-09T05:08:42;2.33;;;1.55;;
27656;SDS011;15066;46.134;9.476;2022-09-09T05:11:23;5.17;;;1.35;;
27656;SDS011;15066;46.134;9.476;2022-09-09T05:13:53;2.45;;;1.60;;
27656;SDS011;15066;46.134;9.476;2022-09-09T05:16:22;3.60;;;1.30;;
27656;SDS011;15066;46.134;9.476;2022-09-09T05:18:49;2.25;;;1.25;;
27656;SDS011;15066;46.134;9.476;2022-09-09T05:21:18;2.23;;;1.13;;
27656;SDS011;15066;46.134;9.476;2022-09-09T05:23:47;3.90;;;1.35;;
27656;SDS011;15066;46.134;9.476;2022-09-09T05:26:17;3.30;;;1.30;;
27656;SDS011;15066;46.134;9.476;2022-09-09T05:28:46;2.10;;;1.12;;
27656;SDS011;15066;46.134;9.476;2022-09-09T05:31:16;3.65;;;1.40;;
27656;SDS011;15066;46.134;9.476;2022-09-09T05:33:45;1.60;;;1.50;;
27656;SDS011;15066;46.134;9.476;2022-09-09T05:36:14;2.25;;;1.57;;
27656;SDS011;15066;46.134;9.476;2022-09-09T05:38:44;2.40;;;1.50;;
27656;SDS011;15066;46.134;9.476;2022-09-09T05:41:12;3.20;;;1.60;;
27656;SDS011;15066;46.134;9.476;2022-09-09T05:43:43;2.40;;;1.32;;
27656;SDS011;15066;46.134;9.476;2022-09-09T05:46:14;1.82;;;1.37;;
27656;SDS011;15066;46.134;9.476;2022-09-09T05:48:44;4.22;;;1.40;;
27656;SDS011;15066;46.134;9.476;2022-09-09T05:51:17;3.25;;;1.52;;
27656;SDS011;15066;46.134;9.476;2022-09-09T05:53:47;4.22;;;1.80;;
27656;SDS011;15066;46.134;9.476;2022-09-09T05:56:21;3.80;;;1.87;;
27656;SDS011;15066;46.134;9.476;2022-09-09T05:58:51;4.83;;;2.40;;
27656;SDS011;15066;46.134;9.476;2022-09-09T06:01:29;6.12;;;3.50;;
27656;SDS011;15066;46.134;9.476;2022-09-09T06:03:58;4.37;;;3.00;;
27656;SDS011;15066;46.134;9.476;2022-09-09T06:06:27;5.40;;;3.17;;
27656;SDS011;15066;46.134;9.476;2022-09-09T06:09:00;6.15;;;2.90;;
27656;SDS011;15066;46.134;9.476;2022-09-09T06:11:31;5.35;;;2.75;;
27656;SDS011;15066;46.134;9.476;2022-09-09T06:13:59;5.78;;;2.98;;
27656;SDS011;15066;46.134;9.476;2022-09-09T06:16:28;5.47;;;2.90;;
27656;SDS011;15066;46.134;9.476;2022-09-09T06:18:58;2.98;;;2.60;;
27656;SDS011;15066;46.134;9.476;2022-09-09T06:21:34;7.12;;;2.83;;
27656;SDS011;15066;46.134;9.476;2022-09-09T06:23:58;5.10;;;2.70;;
27656;SDS011;15066;46.134;9.476;2022-09-09T06:26:27;4.77;;;3.07;;
27656;SDS011;15066;46.134;9.476;2022-09-09T06:29:00;4.25;;;2.55;;
27656;SDS011;15066;46.134;9.476;2022-09-09T06:31:30;4.75;;;2.67;;
27656;SDS011;15066;46.134;9.476;2022-09-09T06:34:00;5.62;;;2.80;;
27656;SDS011;15066;46.134;9.476;2022-09-09T06:36:28;5.28;;;3.25;;
27656;SDS011;15066;46.134;9.476;2022-09-09T06:38:58;2.77;;;2.35;;
27656;SDS011;15066;46.134;9.476;2022-09-09T06:41:27;3.17;;;2.30;;
27656;SDS011;15066;46.134;9.476;2022-09-09T06:43:56;3.15;;;2.30;;
27656;SDS011;15066;46.134;9.476;2022-09-09T06:46:27;2.70;;;2.37;;
27656;SDS011;15066;46.134;9.476;2022-09-09T06:48:58;4.67;;;2.30;;
27656;SDS011;15066;46.134;9.476;2022-09-09T06:53:56;2.50;;;2.00;;
27656;SDS011;15066;46.134;9.476;2022-09-09T06:56:29;4.58;;;2.12;;
27656;SDS011;15066;46.134;9.476;2022-09-09T06:59:00;3.72;;;2.17;;
27656;SDS011;15066;46.134;9.476;2022-09-09T07:01:30;3.02;;;2.30;;
27656;SDS011;15066;46.134;9.476;2022-09-09T07:04:01;1.70;;;1.45;;
27656;SDS011;15066;46.134;9.476;2022-09-09T07:06:32;1.80;;;1.70;;
27656;SDS011;15066;46.134;9.476;2022-09-09T07:09:04;2.42;;;1.98;;
27656;SDS011;15066;46.134;9.476;2022-09-09T07:11:38;3.55;;;1.90;;
27656;SDS011;15066;46.134;9.476;2022-09-09T07:14:08;3.27;;;2.15;;
27656;SDS011;15066;46.134;9.476;2022-09-09T07:16:37;2.55;;;1.72;;
27656;SDS011;15066;46.134;9.476;2022-09-09T07:19:06;3.30;;;1.80;;
27656;SDS011;15066;46.134;9.476;2022-09-09T07:21:37;3.08;;;1.62;;
27656;SDS011;15066;46.134;9.476;2022-09-09T07:24:06;2.50;;;1.70;;
27656;SDS011;15066;46.134;9.476;2022-09-09T07:26:35;2.20;;;1.30;;
27656;SDS011;15066;46.134;9.476;2022-09-09T07:29:04;7.40;;;1.55;;
27656;SDS011;15066;46.134;9.476;2022-09-09T07:31:34;2.10;;;1.22;;
27656;SDS011;15066;46.134;9.476;2022-09-09T07:34:03;1.62;;;0.90;;
27656;SDS011;15066;46.134;9.476;2022-09-09T07:36:33;0.80;;;0.80;;
27656;SDS011;15066;46.134;9.476;2022-09-09T07:39:05;3.95;;;0.90;;
27656;SDS011;15066;46.134;9.476;2022-09-09T07:41:45;1.47;;;0.60;;
27656;SDS011;15066;46.134;9.476;2022-09-09T07:44:12;0.62;;;0.40;;
27656;SDS011;15066;46.134;9.476;2022-09-09T07:46:44;0.30;;;0.30;;
27656;SDS011;15066;46.134;9.476;2022-09-09T07:49:13;1.42;;;0.50;;
27656;SDS011;15066;46.134;9.476;2022-09-09T07:51:42;0.50;;;0.47;;
27656;SDS011;15066;46.134;9.476;2022-09-09T07:54:12;0.62;;;0.40;;
27656;SDS011;15066;46.134;9.476;2022-09-09T07:56:41;1.00;;;0.35;;
27656;SDS011;15066;46.134;9.476;2022-09-09T07:59:09;0.30;;;0.30;;
27656;SDS011;15066;46.134;9.476;2022-09-09T08:01:38;0.72;;;0.60;;
27656;SDS011;15066;46.134;9.476;2022-09-09T08:04:10;2.58;;;0.45;;
27656;SDS011;15066;46.134;9.476;2022-09-09T08:06:46;2.05;;;0.40;;
27656;SDS011;15066;46.134;9.476;2022-09-09T08:09:16;0.57;;;0.30;;
27656;SDS011;15066;46.134;9.476;2022-09-09T08:11:43;3.47;;;0.73;;
27656;SDS011;15066;46.134;9.476;2022-09-09T08:14:11;1.57;;;0.47;;
27656;SDS011;15066;46.134;9.476;2022-09-09T08:16:40;0.80;;;0.30;;
27656;SDS011;15066;46.134;9.476;2022-09-09T08:19:10;1.22;;;0.50;;
27656;SDS011;15066;46.134;9.476;2022-09-09T08:24:07;0.40;;;0.30;;
27656;SDS011;15066;46.134;9.476;2022-09-09T08:26:42;1.82;;;0.68;;
27656;SDS011;15066;46.134;9.476;2022-09-09T08:29:12;1.25;;;0.60;;
27656;SDS011;15066;46.134;9.476;2022-09-09T08:31:41;0.40;;;0.40;;
27656;SDS011;15066;46.134;9.476;2022-09-09T08:34:13;1.35;;;0.50;;
27656;SDS011;15066;46.134;9.476;2022-09-09T08:36:42;0.60;;;0.50;;
27656;SDS011;15066;46.134;9.476;2022-09-09T08:39:12;1.42;;;0.40;;
27656;SDS011;15066;46.134;9.476;2022-09-09T08:50:18;0.62;;;0.40;;
27656;SDS011;15066;46.134;9.476;2022-09-09T08:58:21;3.15;;;0.40;;
27656;SDS011;15066;46.134;9.476;2022-09-09T09:03:59;0.70;;;0.50;;
27656;SDS011;15066;46.134;9.476;2022-09-09T09:11:49;2.98;;;0.60;;
27656;SDS011;15066;46.134;9.476;2022-09-09T09:16:54;0.40;;;0.30;;
27656;SDS011;15066;46.134;9.476;2022-09-09T09:19:33;1.32;;;0.37;;
27656;SDS011;15066;46.134;9.476;2022-09-09T09:22:05;0.70;;;0.60;;
27656;SDS011;15066;46.134;9.476;2022-09-09T09:25:27;0.33;;;0.30;;
27656;SDS011;15066;46.134;9.476;2022-09-09T09:30:20;0.50;;;0.50;;
27656;SDS011;15066;46.134;9.476;2022-09-09T09:32:56;1.32;;;0.40;;
27656;SDS011;15066;46.134;9.476;2022-09-09T09:35:26;1.87;;;0.57;;
27656;SDS011;15066;46.134;9.476;2022-09-09T09:37:53;0.53;;;0.30;;
27656;SDS011;15066;46.134;9.476;2022-09-09T09:40:22;0.90;;;0.57;;
27656;SDS011;15066;46.134;9.476;2022-09-09T09:42:57;1.55;;;0.30;;
27656;SDS011;15066;46.134;9.476;2022-09-09T09:45:34;0.47;;;0.47;;
27656;SDS011;15066;46.134;9.476;2022-09-09T09:48:08;0.57;;;0.30;;
27656;SDS011;15066;46.134;9.476;2022-09-09T09:50:46;1.00;;;0.55;;
27656;SDS011;15066;46.134;9.476;2022-09-09T09:58:30;1.20;;;0.68;;
27656;SDS011;15066;46.134;9.476;2022-09-09T10:01:00;0.95;;;0.30;;
27656;SDS011;15066;46.134;9.476;2022-09-09T10:03:30;0.60;;;0.35;;
27656;SDS011;15066;46.134;9.476;2022-09-09T10:06:01;1.50;;;0.40;;
27656;SDS011;15066;46.134;9.476;2022-09-09T10:08:29;3.37;;;0.60;;
27656;SDS011;15066;46.134;9.476;2022-09-09T10:16:59;1.12;;;0.30;;
27656;SDS011;15066;46.134;9.476;2022-09-09T10:19:50;0.30;;;0.30;;
27656;SDS011;15066;46.134;9.476;2022-09-09T10:33:10;1.75;;;0.30;;
27656;SDS011;15066;46.134;9.476;2022-09-09T10:35:51;0.72;;;0.40;;
27656;SDS011;15066;46.134;9.476;2022-09-09T10:38:30;1.20;;;0.35;;
27656;SDS011;15066;46.134;9.476;2022-09-09T10:41:11;0.35;;;0.35;;
27656;SDS011;15066;46.134;9.476;2022-09-09T10:43:50;0.50;;;0.50;;
27656;SDS011;15066;46.134;9.476;2022-09-09T10:54:44;0.62;;;0.35;;
27656;SDS011;15066;46.134;9.476;2022-09-09T10:57:16;1.00;;;0.20;;
27656;SDS011;15066;46.134;9.476;2022-09-09T10:59:50;0.30;;;0.30;;
27656;SDS011;15066;46.134;9.476;2022-09-09T11:02:30;0.53;;;0.40;;
27656;SDS011;15066;46.134;9.476;2022-09-09T11:07:41;0.45;;;0.20;;
27656;SDS011;15066;46.134;9.476;2022-09-09T11:13:03;0.95;;;0.35;;
27656;SDS011;15066;46.134;9.476;2022-09-09T11:15:38;0.53;;;0.33;;
27656;SDS011;15066;46.134;9.476;2022-09-09T11:18:11;0.55;;;0.30;;
27656;SDS011;15066;46.134;9.476;2022-09-09T11:20:40;0.20;;;0.20;;
27656;SDS011;15066;46.134;9.476;2022-09-09T11:23:15;0.20;;;0.20;;
27656;SDS011;15066;46.134;9.476;2022-09-09T11:25:40;0.45;;;0.37;;
27656;SDS011;15066;46.134;9.476;2022-09-09T11:28:31;0.20;;;0.20;;
27656;SDS011;15066;46.134;9.476;2022-09-09T11:36:56;0.72;;;0.30;;
27656;SDS011;15066;46.134;9.476;2022-09-09T11:39:37;1.75;;;0.20;;
27656;SDS011;15066;46.134;9.476;2022-09-09T11:44:49;0.20;;;0.20;;
27656;SDS011;15066;46.134;9.476;2022-09-09T11:47:24;0.90;;;0.33;;
27656;SDS011;15066;46.134;9.476;2022-09-09T11:52:46;0.30;;;0.30;;
27656;SDS011;15066;46.134;9.476;2022-09-09T11:55:25;0.72;;;0.20;;
27656;SDS011;15066;46.134;9.476;2022-09-09T11:57:59;1.22;;;0.37;;
27656;SDS011;15066;46.134;9.476;2022-09-09T12:06:17;5.72;;;5.20;;
27656;SDS011;15066;46.134;9.476;2022-09-09T12:08:49;2.08;;;1.87;;
27656;SDS011;15066;46.134;9.476;2022-09-09T12:11:28;0.10;;;0.10;;
27656;SDS011;15066;46.134;9.476;2022-09-09T12:13:57;0.10;;;0.10;;
27656;SDS011;15066;46.134;9.476;2022-09-09T12:19:13;0.50;;;0.50;;
27656;SDS011;15066;46.134;9.476;2022-09-09T12:21:43;0.30;;;0.30;;
27656;SDS011;15066;46.134;9.476;2022-09-09T12:24:16;0.25;;;0.25;;
27656;SDS011;15066;46.134;9.476;2022-09-09T12:26:52;1.20;;;0.30;;
27656;SDS011;15066;46.134;9.476;2022-09-09T12:40:21;1.07;;;0.30;;
27656;SDS011;15066;46.134;9.476;2022-09-09T12:42:53;1.45;;;0.40;;
27656;SDS011;15066;46.134;9.476;2022-09-09T12:47:53;0.20;;;0.20;;
27656;SDS011;15066;46.134;9.476;2022-09-09T12:50:29;0.42;;;0.40;;
27656;SDS011;15066;46.134;9.476;2022-09-09T12:52:59;0.37;;;0.37;;
27656;SDS011;15066;46.134;9.476;2022-09-09T12:55:30;0.50;;;0.33;;
27656;SDS011;15066;46.134;9.476;2022-09-09T12:57:59;0.20;;;0.20;;
27656;SDS011;15066;46.134;9.476;2022-09-09T13:00:30;1.45;;;0.37;;
27656;SDS011;15066;46.134;9.476;2022-09-09T13:03:00;1.30;;;0.30;;
27656;SDS011;15066;46.134;9.476;2022-09-09T13:05:36;0.42;;;0.35;;
27656;SDS011;15066;46.134;9.476;2022-09-09T13:08:06;0.50;;;0.50;;
27656;SDS011;15066;46.134;9.476;2022-09-09T13:10:40;0.72;;;0.30;;
27656;SDS011;15066;46.134;9.476;2022-09-09T13:13:19;0.30;;;0.30;;
27656;SDS011;15066;46.134;9.476;2022-09-09T13:15:54;2.62;;;0.95;;
27656;SDS011;15066;46.134;9.476;2022-09-09T13:18:21;0.78;;;0.60;;
27656;SDS011;15066;46.134;9.476;2022-09-09T13:20:50;1.70;;;0.72;;
27656;SDS011;15066;46.134;9.476;2022-09-09T13:23:18;0.60;;;0.60;;
27656;SDS011;15066;46.134;9.476;2022-09-09T13:25:58;3.58;;;0.78;;
27656;SDS011;15066;46.134;9.476;2022-09-09T13:28:30;0.40;;;0.40;;
27656;SDS011;15066;46.134;9.476;2022-09-09T13:31:01;0.40;;;0.40;;
27656;SDS011;15066;46.134;9.476;2022-09-09T13:33:36;1.27;;;1.00;;
27656;SDS011;15066;46.134;9.476;2022-09-09T13:38:53;0.85;;;0.60;;
27656;SDS011;15066;46.134;9.476;2022-09-09T13:41:19;2.45;;;0.70;;
27656;SDS011;15066;46.134;9.476;2022-09-09T13:43:47;2.52;;;0.70;;
27656;SDS011;15066;46.134;9.476;2022-09-09T13:46:34;0.72;;;0.72;;
27656;SDS011;15066;46.134;9.476;2022-09-09T13:51:40;1.72;;;0.60;;
27656;SDS011;15066;46.134;9.476;2022-09-09T13:54:11;1.32;;;0.55;;
27656;SDS011;15066;46.134;9.476;2022-09-09T13:56:40;1.02;;;0.30;;
27656;SDS011;15066;46.134;9.476;2022-09-09T13:59:10;0.60;;;0.60;;
27656;SDS011;15066;46.134;9.476;2022-09-09T14:01:39;1.35;;;0.72;;
27656;SDS011;15066;46.134;9.476;2022-09-09T14:04:07;1.25;;;0.50;;
27656;SDS011;15066;46.134;9.476;2022-09-09T14:06:36;1.55;;;0.72;;
27656;SDS011;15066;46.134;9.476;2022-09-09T14:09:05;2.00;;;0.50;;
27656;SDS011;15066;46.134;9.476;2022-09-09T14:11:34;0.98;;;0.50;;
27656;SDS011;15066;46.134;9.476;2022-09-09T14:14:01;0.80;;;0.80;;
27656;SDS011;15066;46.134;9.476;2022-09-09T14:16:29;0.73;;;0.73;;
27656;SDS011;15066;46.134;9.476;2022-09-09T14:18:56;1.10;;;0.77;;
27656;SDS011;15066;46.134;9.476;2022-09-09T14:21:25;0.42;;;0.42;;
27656;SDS011;15066;46.134;9.476;2022-09-09T14:23:54;0.98;;;0.60;;
27656;SDS011;15066;46.134;9.476;2022-09-09T14:26:24;0.80;;;0.50;;
27656;SDS011;15066;46.134;9.476;2022-09-09T14:31:18;0.75;;;0.40;;
27656;SDS011;15066;46.134;9.476;2022-09-09T14:33:46;0.68;;;0.40;;
27656;SDS011;15066;46.134;9.476;2022-09-09T14:36:14;3.00;;;0.73;;
27656;SDS011;15066;46.134;9.476;2022-09-09T14:38:42;1.05;;;0.55;;
27656;SDS011;15066;46.134;9.476;2022-09-09T14:41:10;0.47;;;0.40;;
27656;SDS011;15066;46.134;9.476;2022-09-09T14:43:41;0.50;;;0.50;;
27656;SDS011;15066;46.134;9.476;2022-09-09T14:46:10;0.60;;;0.55;;
27656;SDS011;15066;46.134;9.476;2022-09-09T14:48:39;1.67;;;0.50;;
27656;SDS011;15066;46.134;9.476;2022-09-09T14:51:08;1.20;;;0.47;;
27656;SDS011;15066;46.134;9.476;2022-09-09T14:53:39;0.80;;;0.55;;
27656;SDS011;15066;46.134;9.476;2022-09-09T14:56:11;1.27;;;0.60;;
27656;SDS011;15066;46.134;9.476;2022-09-09T14:58:40;0.42;;;0.42;;
27656;SDS011;15066;46.134;9.476;2022-09-09T15:01:14;0.72;;;0.50;;
27656;SDS011;15066;46.134;9.476;2022-09-09T15:03:39;1.45;;;0.57;;
27656;SDS011;15066;46.134;9.476;2022-09-09T15:06:10;0.72;;;0.72;;
27656;SDS011;15066;46.134;9.476;2022-09-09T15:08:43;0.65;;;0.60;;
27656;SDS011;15066;46.134;9.476;2022-09-09T15:11:12;2.35;;;0.80;;
27656;SDS011;15066;46.134;9.476;2022-09-09T15:13:42;0.80;;;0.80;;
27656;SDS011;15066;46.134;9.476;2022-09-09T15:16:14;1.02;;;0.70;;
27656;SDS011;15066;46.134;9.476;2022-09-09T15:18:44;1.65;;;0.90;;
27656;SDS011;15066;46.134;9.476;2022-09-09T15:21:13;0.65;;;0.62;;
27656;SDS011;15066;46.134;9.476;2022-09-09T15:23:44;1.22;;;0.60;;
27656;SDS011;15066;46.134;9.476;2022-09-09T15:26:16;1.45;;;0.75;;
27656;SDS011;15066;46.134;9.476;2022-09-09T15:28:45;0.90;;;0.70;;
27656;SDS011;15066;46.134;9.476;2022-09-09T15:31:17;0.62;;;0.62;;
27656;SDS011;15066;46.134;9.476;2022-09-09T15:33:50;2.25;;;0.90;;
27656;SDS011;15066;46.134;9.476;2022-09-09T15:36:23;3.02;;;0.70;;
27656;SDS011;15066;46.134;9.476;2022-09-09T15:38:52;0.60;;;0.60;;
27656;SDS011;15066;46.134;9.476;2022-09-09T15:41:20;0.78;;;0.70;;
27656;SDS011;15066;46.134;9.476;2022-09-09T15:43:50;1.22;;;0.75;;
27656;SDS011;15066;46.134;9.476;2022-09-09T15:46:34;2.98;;;0.80;;
27656;SDS011;15066;46.134;9.476;2022-09-09T15:49:08;0.60;;;0.60;;
27656;SDS011;15066;46.134;9.476;2022-09-09T15:51:39;0.88;;;0.88;;
27656;SDS011;15066;46.134;9.476;2022-09-09T15:54:09;0.68;;;0.60;;
27656;SDS011;15066;46.134;9.476;2022-09-09T15:56:39;1.20;;;0.93;;
27656;SDS011;15066;46.134;9.476;2022-09-09T15:59:08;1.00;;;0.90;;
27656;SDS011;15066;46.134;9.476;2022-09-09T16:01:37;1.47;;;0.70;;
27656;SDS011;15066;46.134;9.476;2022-09-09T16:06:32;3.50;;;0.70;;
27656;SDS011;15066;46.134;9.476;2022-09-09T16:09:00;1.25;;;0.70;;
27656;SDS011;15066;46.134;9.476;2022-09-09T16:11:31;1.95;;;1.02;;
27656;SDS011;15066;46.134;9.476;2022-09-09T16:14:01;0.93;;;0.85;;
27656;SDS011;15066;46.134;9.476;2022-09-09T16:16:32;3.10;;;0.95;;
27656;SDS011;15066;46.134;9.476;2022-09-09T16:19:06;2.00;;;0.90;;
27656;SDS011;15066;46.134;9.476;2022-09-09T16:21:33;2.67;;;0.93;;
27656;SDS011;15066;46.134;9.476;2022-09-09T16:24:03;1.42;;;1.12;;
27656;SDS011;15066;46.134;9.476;2022-09-09T16:26:32;0.93;;;0.90;;
27656;SDS011;15066;46.134;9.476;2022-09-09T16:29:02;1.15;;;0.80;;
27656;SDS011;15066;46.134;9.476;2022-09-09T16:31:30;2.65;;;1.15;;
27656;SDS011;15066;46.134;9.476;2022-09-09T16:33:58;0.88;;;0.88;;
27656;SDS011;15066;46.134;9.476;2022-09-09T16:36:31;1.23;;;1.00;;
27656;SDS011;15066;46.134;9.476;2022-09-09T16:38:57;3.60;;;1.10;;
27656;SDS011;15066;46.134;9.476;2022-09-09T16:41:27;2.87;;;1.40;;
27656;SDS011;15066;46.134;9.476;2022-09-09T16:43:59;1.57;;;1.10;;
27656;SDS011;15066;46.134;9.476;2022-09-09T16:46:29;6.15;;;1.10;;
27656;SDS011;15066;46.134;9.476;2022-09-09T16:49:00;1.98;;;1.07;;
27656;SDS011;15066;46.134;9.476;2022-09-09T16:51:31;3.08;;;1.30;;
27656;SDS011;15066;46.134;9.476;2022-09-09T16:54:01;1.07;;;1.00;;
27656;SDS011;15066;46.134;9.476;2022-09-09T16:56:32;2.52;;;1.07;;
27656;SDS011;15066;46.134;9.476;2022-09-09T16:59:11;1.30;;;1.10;;
27656;SDS011;15066;46.134;9.476;2022-09-09T17:01:40;1.57;;;1.02;;
27656;SDS011;15066;46.134;9.476;2022-09-09T17:04:11;1.62;;;1.00;;
27656;SDS011;15066;46.134;9.476;2022-09-09T17:06:44;2.83;;;1.05;;
27656;SDS011;15066;46.134;9.476;2022-09-09T17:09:12;2.22;;;1.02;;
27656;SDS011;15066;46.134;9.476;2022-09-09T17:11:40;2.67;;;1.10;;
27656;SDS011;15066;46.134;9.476;2022-09-09T17:14:08;1.43;;;1.10;;
27656;SDS011;15066;46.134;9.476;2022-09-09T17:16:38;1.82;;;1.10;;
27656;SDS011;15066;46.134;9.476;2022-09-09T17:19:06;3.08;;;1.20;;
27656;SDS011;15066;46.134;9.476;2022-09-09T17:21:37;2.00;;;1.17;;
27656;SDS011;15066;46.134;9.476;2022-09-09T17:24:06;3.35;;;1.00;;
27656;SDS011;15066;46.134;9.476;2022-09-09T17:26:33;1.92;;;1.40;;
27656;SDS011;15066;46.134;9.476;2022-09-09T17:29:02;7.72;;;1.32;;
27656;SDS011;15066;46.134;9.476;2022-09-09T17:31:30;1.87;;;1.20;;
27656;SDS011;15066;46.134;9.476;2022-09-09T17:33:59;1.45;;;1.17;;
27656;SDS011;15066;46.134;9.476;2022-09-09T17:36:30;1.20;;;1.10;;
27656;SDS011;15066;46.134;9.476;2022-09-09T17:39:00;2.52;;;1.60;;